Date,TemperatureHighF,TemperatureAvgF,TemperatureLowF,DewpointHighF,DewpointAvgF,DewpointLowF,HumidityHigh,HumidityAvg,HumidityLow,PressureMaxIn,PressureMinIn,WindSpeedMaxMPH,WindSpeedAvgMPH,GustSpeedMaxMPH,PrecipitationSumIn
2013-1-1,36,31,19,25,18,5,71,60,49,29.90,29.68,34,6,34,0.00
2013-1-2,29,20,12,17,8,-2,67,59,53,30.08,29.86,24,6,24,0.00
2013-1-3,24,15,6,10,1,-6,63,53,40,30.11,29.96,19,4,19,0.00
2013-1-4,38,28,16,24,18,8,79,66,54,29.96,29.77,22,4,22,0.05
2013-1-5,40,32,25,25,20,17,73,62,44,30.23,29.81,21,3,21,0.05
2013-1-6,42,33,25,28,24,18,80,70,57,30.19,29.90,16,2,16,0.07
2013-1-7,38,32,26,27,21,15,82,67,47,30.37,29.92,18,3,18,0.02
2013-1-8,45,34,25,29,25,20,84,70,52,30.34,30.22,22,3,22,0.10
2013-1-9,42,36,26,34,27,20,84,72,58,30.37,29.94,20,3,20,0.02
2013-1-10,46,41,33,28,24,22,64,53,43,30.50,29.99,34,8,34,0.00
2013-1-11,41,35,28,34,27,20,85,71,63,30.49,30.19,11,2,11,0.06
2013-1-12,44,41,38,40,37,34,88,87,85,30.20,30.09,10,2,10,0.02
2013-1-13,52,47,42,48,43,39,92,88,85,30.12,29.95,15,2,15,0.00
2013-1-14,60,52,42,51,42,27,87,71,47,30.22,29.80,20,5,20,0.00
2013-1-15,42,39,35,28,25,22,64,58,54,30.28,30.18,12,3,12,0.00
2013-1-16,35,33,31,30,27,22,87,79,58,30.21,29.79,14,2,14,0.11
2013-1-17,40,34,30,32,26,14,87,74,52,30.06,29.80,17,4,17,0.13
2013-1-18,30,23,18,14,3,-2,53,43,34,30.42,30.02,24,6,24,0.00
2013-1-19,48,37,23,30,22,6,70,55,42,30.36,29.85,26,6,26,0.10
2013-1-20,54,41,29,32,25,10,70,54,37,29.89,29.50,33,8,33,0.00
2013-1-21,31,26,22,18,11,5,78,53,37,30.07,29.76,20,4,20,0.00
2013-1-22,26,21,14,18,9,0,80,60,40,30.04,29.72,21,6,21,0.00
2013-1-23,18,12,8,1,-5,-9,59,45,31,30.11,30.02,28,6,28,0.00
2013-1-24,20,12,4,-5,-8,-11,58,41,29,30.18,30.02,31,8,31,0.00
2013-1-25,25,17,9,11,-5,-11,72,39,27,30.27,30.03,22,6,22,0.00
2013-1-26,24,18,12,11,3,-6,81,54,33,30.20,29.97,23,6,23,0.00
2013-1-27,30,21,13,5,1,-3,64,43,30,30.43,30.19,24,7,24,0.00
2013-1-28,32,25,19,25,11,1,84,57,31,30.42,29.98,12,2,12,0.00
2013-1-29,34,30,26,30,26,21,85,82,78,30.16,29.98,9,2,9,0.08
2013-1-30,59,48,34,55,44,30,90,86,82,30.13,29.42,30,6,30,0.11
2013-1-31,60,47,30,56,36,16,87,68,45,29.56,28.93,47,12,47,0.13
2013-2-1,34,29,23,18,10,5,58,45,34,30.05,29.56,24,8,24,0.00
2013-2-2,32,25,18,12,8,4,56,47,36,30.22,30.01,15,5,15,0.00
2013-2-3,27,25,23,20,18,12,79,74,52,30.02,29.69,12,4,12,0.00
2013-2-4,30,25,20,19,12,6,79,58,41,29.91,29.68,30,7,30,0.00
2013-2-5,30,26,21,21,13,8,80,58,45,30.00,29.90,13,3,13,0.00
2013-2-6,39,30,25,26,19,7,82,65,44,30.26,29.89,23,4,23,0.03
2013-2-7,29,25,18,17,5,0,61,42,31,30.50,30.26,22,4,22,0.00
2013-2-8,33,30,18,29,24,14,87,79,61,30.45,29.56,41,11,41,0.03
2013-2-9,20,18,13,17,14,9,92,84,82,30.15,29.52,34,11,34,0.00
2013-2-10,31,19,8,28,15,3,88,84,80,30.36,30.15,21,2,21,0.00
2013-2-11,39,29,15,37,25,11,90,88,83,30.32,29.57,13,1,13,0.35
2013-2-12,42,36,31,32,29,25,90,75,59,29.84,29.57,28,6,28,0.06
2013-2-13,42,34,26,27,24,19,79,68,53,29.84,29.65,12,2,12,0.00
2013-2-14,45,36,29,27,24,20,76,61,43,29.96,29.67,15,4,15,0.00
2013-2-15,52,39,30,35,30,22,84,70,52,29.97,29.86,19,4,19,0.00
2013-2-16,38,35,31,30,26,18,84,71,55,29.92,29.67,17,5,17,0.03
2013-2-17,31,22,17,19,12,2,82,66,50,29.67,29.33,35,11,35,0.00
2013-2-18,31,22,14,7,3,1,55,44,29,30.12,29.63,31,9,31,0.00
2013-2-19,47,36,22,38,23,4,87,62,45,30.13,29.54,18,4,18,0.34
2013-2-20,40,32,26,37,21,12,92,64,46,29.74,29.48,30,8,30,0.01
2013-2-21,32,27,24,15,13,10,64,56,47,30.14,29.73,28,8,28,0.00
2013-2-22,40,32,23,24,20,14,74,63,48,30.36,30.14,18,5,18,0.00
2013-2-23,39,35,31,30,28,22,86,75,67,30.31,29.89,16,4,16,0.12
2013-2-24,37,34,31,34,31,28,88,87,86,29.89,29.65,25,5,25,0.52
2013-2-25,39,34,30,31,28,26,87,80,68,30.22,29.86,11,2,11,0.07
2013-2-26,45,37,29,34,29,25,87,73,52,30.31,30.13,17,4,17,0.00
2013-2-27,41,39,38,39,35,30,92,86,74,30.13,29.52,38,12,38,1.02
2013-2-28,45,35,34,38,22,-100,88,76,72,29.61,29.49,9,-85,9,0.00
2013-3-1,40,37,34,33,29,27,85,73,63,29.64,29.50,16,4,16,0.00
2013-3-2,43,37,31,30,27,24,76,66,57,29.64,29.58,16,4,16,0.00
2013-3-3,43,36,33,32,28,24,82,71,63,29.61,29.52,15,4,15,0.00
2013-3-4,40,35,30,28,24,21,80,64,52,29.70,29.54,29,9,29,0.00
2013-3-5,45,37,31,32,27,21,78,65,54,30.04,29.70,21,5,21,0.00
2013-3-6,41,38,35,34,31,28,84,79,66,30.09,30.01,35,12,35,0.13
2013-3-7,36,33,31,30,28,27,86,83,72,30.04,29.95,32,10,32,0.15
2013-3-8,40,33,29,30,27,23,88,79,58,30.11,29.90,38,8,38,0.02
2013-3-9,44,36,30,33,26,20,83,67,59,30.32,30.10,20,5,20,0.74
2013-3-10,43,35,26,33,28,22,91,77,66,30.38,30.29,12,4,14,0.08
2013-3-11,54,42,35,40,34,30,83,74,57,30.30,30.12,17,4,17,0.00
2013-3-12,56,50,41,51,45,36,88,84,76,30.14,29.69,24,6,24,0.14
2013-3-13,52,45,37,49,32,20,88,62,35,29.75,29.66,19,5,19,0.00
2013-3-14,38,33,24,24,16,7,63,51,39,29.80,29.67,26,7,26,0.00
2013-3-15,42,31,20,25,13,4,67,48,28,29.84,29.59,25,7,25,0.00
2013-3-16,40,35,27,25,16,10,67,47,30,29.85,29.63,18,4,18,0.00
2013-3-17,38,32,25,17,11,5,65,43,28,30.29,29.84,22,5,22,0.00
2013-3-18,42,30,20,25,11,2,80,46,28,30.43,30.22,14,5,14,0.01
2013-3-19,35,33,28,32,29,24,88,86,80,30.22,29.57,32,10,32,0.59
2013-3-20,38,31,25,24,22,20,85,70,51,29.78,29.66,28,5,28,0.04
2013-3-21,38,31,24,28,22,17,82,70,51,29.79,29.58,11,2,11,0.14
2013-3-22,39,33,28,26,21,18,81,60,45,29.71,29.57,19,5,19,0.14
2013-3-23,42,35,27,23,20,17,71,56,40,29.75,29.59,27,7,27,0.07
2013-3-24,45,38,29,29,24,19,70,58,44,29.78,29.69,21,5,21,0.01
2013-3-25,49,38,32,35,29,24,74,68,53,29.74,29.49,24,6,24,0.00
2013-3-26,49,41,34,30,25,20,80,54,34,29.74,29.50,17,5,17,0.01
2013-3-27,55,43,31,31,25,20,66,49,34,29.83,29.69,25,6,25,0.00
2013-3-28,48,43,37,35,32,29,84,68,49,29.98,29.83,15,4,15,0.02
2013-3-29,57,46,35,36,32,27,78,59,39,30.01,29.92,23,4,23,0.01
2013-3-30,57,47,38,33,27,16,71,48,22,30.06,29.96,18,4,18,0.00
2013-3-31,62,47,31,40,28,23,74,51,24,30.09,29.72,26,5,26,0.00
2013-4-1,64,48,35,48,37,15,87,68,40,29.75,29.46,32,7,32,0.14
2013-4-2,43,36,30,19,15,11,53,43,32,29.91,29.75,34,8,34,0.00
2013-4-3,46,38,30,18,14,12,57,40,25,30.12,29.89,30,9,30,0.00
2013-4-4,56,43,29,25,18,14,59,39,20,30.26,30.01,17,5,17,0.00
2013-4-5,59,47,38,32,27,22,64,48,26,30.02,29.58,30,6,30,0.00
2013-4-6,46,39,33,24,13,5,55,36,19,30.30,29.84,28,7,28,0.00
2013-4-7,55,43,30,38,27,16,74,55,31,30.30,29.97,33,6,33,0.00
2013-4-8,65,53,43,42,39,37,85,62,36,30.07,29.92,18,4,18,0.00
2013-4-9,71,56,48,53,44,37,87,66,43,30.06,29.82,23,5,23,0.15
2013-4-10,64,52,47,48,44,40,86,74,53,29.98,29.83,15,4,15,0.19
2013-4-11,55,48,44,45,40,29,87,75,54,30.12,29.79,13,4,13,0.04
2013-4-12,44,40,38,37,34,31,87,80,59,30.14,29.75,31,9,31,0.38
2013-4-13,52,42,36,40,36,32,87,78,57,29.90,29.72,19,4,19,0.03
2013-4-14,54,46,40,39,33,27,82,61,40,30.18,29.88,24,4,24,0.00
2013-4-15,59,47,35,38,33,26,75,59,42,30.36,30.18,21,5,21,0.00
2013-4-16,67,54,41,49,41,34,84,64,44,30.38,30.02,29,6,29,0.00
2013-4-17,66,59,52,51,38,29,78,49,27,30.30,30.01,21,6,21,0.00
2013-4-18,66,54,44,42,35,28,66,49,32,30.40,30.12,22,6,22,0.00
2013-4-19,76,64,53,62,56,42,87,76,57,30.12,29.63,31,8,33,0.00
2013-4-20,67,55,45,61,43,25,87,66,41,30.18,29.56,25,7,25,0.41
2013-4-21,53,44,36,31,25,21,60,47,32,30.65,30.18,20,6,20,0.00
2013-4-22,55,44,35,35,30,25,76,59,34,30.73,30.56,26,8,28,0.00
2013-4-23,43,42,41,39,36,30,89,80,65,30.56,30.09,22,8,22,0.04
2013-4-24,72,54,42,54,45,39,87,72,46,30.09,29.75,22,6,24,0.02
2013-4-25,65,56,47,51,39,27,84,55,27,30.23,29.80,23,5,23,0.02
2013-4-26,61,52,43,40,35,29,76,55,39,30.40,30.23,21,6,21,0.00
2013-4-27,67,54,40,40,36,32,83,55,31,30.39,30.26,18,4,18,0.00
2013-4-28,70,56,42,42,36,28,78,49,29,30.31,30.18,22,4,22,0.00
2013-4-29,71,59,49,48,38,20,76,49,22,30.25,30.15,18,4,18,0.00
2013-4-30,70,57,46,38,30,13,69,40,13,30.34,30.22,17,4,17,0.00
2013-5-1,69,56,41,42,36,30,76,49,24,30.44,30.34,15,3,15,0.00
2013-5-2,77,57,45,48,41,36,79,58,25,30.45,30.33,28,4,28,0.00
2013-5-3,60,51,44,44,40,37,80,66,52,30.49,30.34,19,6,19,0.00
2013-5-4,59,50,42,45,39,36,84,67,51,30.34,30.28,19,5,19,0.00
2013-5-5,60,50,39,42,38,33,83,66,46,30.30,30.23,18,5,18,0.00
2013-5-6,63,51,40,47,43,35,85,73,55,30.26,30.13,15,3,15,0.00
2013-5-7,75,61,45,58,50,40,86,68,45,30.15,30.06,17,4,17,0.00
2013-5-8,71,62,56,61,55,50,87,78,69,30.17,30.02,23,5,23,0.27
2013-5-9,64,59,57,59,56,53,90,88,82,30.02,29.85,15,2,15,0.79
2013-5-10,74,63,57,62,56,54,91,79,61,29.92,29.85,15,3,15,0.02
2013-5-11,72,65,60,62,58,53,86,78,67,29.88,29.66,25,4,25,0.01
2013-5-12,68,62,52,59,52,34,88,72,44,29.77,29.52,25,4,25,0.03
2013-5-13,58,52,46,38,34,29,64,50,36,29.99,29.77,22,4,22,0.00
2013-5-14,58,51,42,37,33,31,69,52,37,30.02,29.93,20,5,20,0.00
2013-5-15,67,55,41,51,40,32,81,60,32,30.03,29.64,24,4,24,0.00
2013-5-16,78,66,49,52,44,35,85,51,26,29.77,29.58,27,4,27,0.00
2013-5-17,67,60,53,46,42,36,68,52,33,30.18,29.77,26,5,26,0.00
2013-5-18,71,61,49,49,45,40,78,57,33,30.27,30.18,17,3,17,0.00
2013-5-19,72,59,53,53,49,45,86,71,49,30.31,30.19,19,3,19,0.06
2013-5-20,79,67,57,66,59,53,89,78,60,30.19,29.87,17,2,17,0.03
2013-5-21,75,62,52,63,55,48,86,79,63,30.00,29.84,23,4,23,0.07
2013-5-22,65,57,52,59,52,48,88,83,73,30.03,29.85,19,4,19,0.07
2013-5-23,75,64,55,67,59,52,90,84,72,29.90,29.77,26,4,26,0.06
2013-5-24,70,63,51,65,60,47,90,88,80,29.79,29.62,19,3,19,0.44
2013-5-25,53,49,42,49,46,38,89,89,87,29.78,29.66,25,6,25,0.18
2013-5-26,57,48,41,45,41,37,88,75,53,30.06,29.68,32,7,32,0.43
2013-5-27,68,58,44,46,41,37,82,58,32,30.14,30.03,22,4,22,0.00
2013-5-28,71,60,47,52,46,39,82,60,34,30.20,30.12,17,4,17,0.00
2013-5-29,68,63,60,63,58,51,89,84,70,30.16,29.95,12,3,12,0.83
2013-5-30,83,73,62,70,65,58,91,78,59,30.04,29.95,19,2,19,0.01
2013-5-31,89,80,68,71,66,62,84,65,44,30.05,29.88,17,2,17,0.00
2013-6-1,90,81,70,68,66,62,75,60,44,29.93,29.81,23,4,23,0.00
2013-6-2,89,79,71,70,66,63,79,65,46,29.84,29.68,34,5,34,0.00
2013-6-3,75,70,64,66,63,48,88,79,57,29.81,29.71,14,2,14,0.35
2013-6-4,68,63,55,50,47,43,68,56,45,30.06,29.79,22,5,22,0.00
2013-6-5,72,64,55,51,48,45,75,56,41,30.15,30.05,17,4,17,0.00
2013-6-6,75,67,59,54,50,42,72,56,35,30.15,30.06,17,4,17,0.00
2013-6-7,63,57,54,55,52,48,91,84,69,30.08,29.77,18,6,18,2.57
2013-6-8,73,62,54,65,57,51,91,85,73,29.96,29.57,20,4,20,0.96
2013-6-9,76,68,58,60,57,54,87,69,51,30.12,29.96,15,2,15,0.00
2013-6-10,70,64,59,58,56,54,88,74,59,30.17,29.99,16,4,16,0.70
2013-6-11,62,59,57,58,55,53,92,88,82,29.99,29.53,25,5,25,1.34
2013-6-12,68,62,57,58,56,53,90,80,64,29.77,29.52,28,4,28,0.08
2013-6-13,68,59,53,57,53,49,88,80,62,29.78,29.64,15,2,15,0.60
2013-6-14,67,59,52,58,53,48,90,82,66,29.72,29.60,17,4,17,1.36
2013-6-15,74,66,56,55,51,46,83,59,37,29.90,29.72,19,4,19,0.00
2013-6-16,74,68,57,61,55,49,77,64,50,29.90,29.67,16,2,16,0.00
2013-6-17,83,70,62,65,60,-100,89,73,43,29.87,29.73,30,-1,30,0.48
2013-6-18,74,64,59,64,59,55,90,85,62,29.91,29.84,16,2,16,0.50
2013-6-19,71,64,57,56,52,46,89,67,42,30.11,29.87,15,4,15,0.01
2013-6-20,76,68,56,57,52,50,81,60,40,30.22,30.10,13,-1,13,0.00
2013-6-21,80,72,61,65,59,53,76,64,45,30.21,30.14,13,3,13,0.01
2013-6-22,82,74,65,66,60,56,75,62,48,30.18,30.07,20,3,20,0.00
2013-6-23,87,77,67,73,65,56,74,65,55,30.12,29.94,23,3,23,0.00
2013-6-24,90,80,72,74,70,67,89,72,55,29.98,29.82,24,3,24,0.51
2013-6-25,92,81,68,77,68,65,94,69,45,29.88,29.68,21,3,21,0.00
2013-6-26,83,78,71,72,67,63,81,70,59,29.82,29.68,11,3,11,0.04
2013-6-27,71,67,63,64,61,58,85,80,73,29.83,29.72,13,4,13,0.03
2013-6-28,80,71,62,72,65,57,87,83,71,29.73,29.45,22,5,22,0.52
2013-6-29,82,76,72,71,68,66,88,78,62,29.69,29.48,22,5,22,0.00
2013-6-30,83,76,71,72,68,66,86,78,66,29.90,29.69,19,3,19,0.00
2013-7-1,80,76,73,74,71,69,88,84,78,30.05,29.90,18,3,18,0.09
2013-7-2,82,74,64,74,68,59,86,81,67,30.18,30.04,15,3,15,0.00
2013-7-3,86,76,63,74,68,59,87,77,62,30.17,30.09,16,3,16,0.00
2013-7-4,89,82,74,75,73,69,86,73,58,30.17,30.05,17,3,17,0.00
2013-7-5,90,85,78,76,73,71,80,69,56,30.12,29.99,16,3,16,0.00
2013-7-6,89,84,78,76,72,64,80,68,56,30.03,29.93,17,3,17,0.00
2013-7-7,89,82,74,75,70,64,77,68,52,29.98,29.86,13,2,13,0.00
2013-7-8,84,78,70,75,70,63,84,76,64,30.03,29.86,15,4,15,0.00
2013-7-9,74,70,67,66,64,62,86,80,74,30.07,30.01,11,3,11,0.00
2013-7-10,84,75,68,73,69,62,90,82,68,30.04,29.75,22,4,22,0.00
2013-7-11,80,77,74,73,70,68,87,81,71,29.89,29.74,12,2,12,0.09
2013-7-12,76,72,69,68,60,55,85,67,49,30.16,29.88,17,5,17,0.00
2013-7-13,77,71,67,68,64,61,85,78,71,30.27,30.16,11,3,12,0.00
2013-7-14,88,79,71,73,70,66,88,75,55,30.27,30.17,13,2,15,0.00
2013-7-15,90,82,74,74,71,68,84,69,52,30.17,30.05,11,2,11,0.00
2013-7-16,91,82,74,73,69,65,77,65,48,30.13,30.07,14,4,14,0.00
2013-7-17,91,84,74,74,70,67,81,65,47,30.14,29.95,19,2,19,0.00
2013-7-18,90,83,79,74,71,67,78,67,52,29.97,29.91,20,4,20,0.00
2013-7-19,95,87,78,77,74,70,83,66,47,29.91,29.67,26,3,26,0.00
2013-7-20,92,86,80,77,73,65,79,66,51,29.77,29.60,19,3,19,0.00
2013-7-21,80,77,73,67,64,59,79,65,51,29.95,29.77,18,4,18,0.00
2013-7-22,81,75,71,68,66,64,84,75,59,29.98,29.85,16,4,16,0.00
2013-7-23,78,73,70,73,69,66,91,88,81,29.85,29.51,24,3,24,1.09
2013-7-24,82,75,69,72,68,55,91,78,58,29.92,29.55,16,3,19,0.00
2013-7-25,69,62,60,57,54,49,89,74,58,30.07,29.92,15,4,15,0.69
2013-7-26,69,65,60,65,61,57,91,89,87,30.02,29.89,18,4,18,1.31
2013-7-27,79,68,61,67,62,57,90,83,58,30.02,29.96,15,2,15,0.00
2013-7-28,78,72,69,70,66,63,88,82,73,29.99,29.93,14,2,14,0.03
2013-7-29,82,74,69,70,67,64,87,79,63,30.00,29.93,18,2,18,0.18
2013-7-30,78,72,63,66,61,57,88,71,50,30.06,29.99,17,3,17,0.00
2013-7-31,80,73,65,64,60,57,79,64,50,30.10,30.00,11,3,13,0.00
2013-8-1,81,74,67,64,62,60,82,68,53,30.01,29.85,18,3,18,0.00
2013-8-2,77,71,66,68,63,59,89,75,55,29.85,29.75,22,2,22,0.37
2013-8-3,76,72,67,64,62,60,82,72,59,29.83,29.74,14,2,19,0.00
2013-8-4,77,70,63,62,58,55,77,68,49,29.85,29.73,20,3,20,0.02
2013-8-5,73,66,60,55,51,44,76,59,37,30.01,29.85,20,4,20,0.00
2013-8-6,76,67,56,57,52,48,78,59,40,30.11,30.01,16,3,16,0.00
2013-8-7,79,70,60,59,55,49,82,60,40,30.15,30.07,18,4,18,0.00
2013-8-8,79,73,68,70,64,53,84,75,58,30.10,29.96,18,3,18,0.01
2013-8-9,75,74,72,72,69,67,91,87,82,29.99,29.71,20,4,20,0.76
2013-8-10,79,73,67,69,63,56,92,74,54,29.97,29.75,22,3,22,0.00
2013-8-11,76,69,60,58,56,53,81,64,49,30.05,29.96,15,2,15,0.00
2013-8-12,78,72,64,62,59,56,81,65,49,29.99,29.88,14,2,14,0.00
2013-8-13,75,71,68,66,63,60,80,75,62,29.89,29.65,13,1,13,0.00
2013-8-14,73,68,63,62,55,51,82,65,50,29.93,29.63,24,5,24,0.00
2013-8-15,74,67,58,55,52,50,75,60,44,30.08,29.92,15,3,15,0.00
2013-8-16,76,68,60,58,54,52,78,62,45,30.15,30.07,18,3,18,0.36
2013-8-17,77,69,60,61,56,53,79,65,49,30.24,30.15,14,3,14,0.00
2013-8-18,80,71,63,64,59,56,81,66,49,30.24,30.05,11,1,11,0.00
2013-8-19,81,72,62,66,60,56,83,66,49,30.05,29.91,15,2,15,0.00
2013-8-20,83,75,66,65,62,58,79,64,47,30.05,29.94,12,2,12,0.00
2013-8-21,85,76,65,67,63,58,81,65,50,30.10,29.98,13,1,13,0.00
2013-8-22,85,77,68,72,66,61,83,71,55,30.00,29.78,17,2,17,0.00
2013-8-23,79,73,66,68,60,50,84,64,47,30.09,29.78,19,4,19,0.00
2013-8-24,74,66,57,52,47,42,72,52,35,30.30,30.09,15,4,15,0.00
2013-8-25,79,69,57,56,52,47,78,56,36,30.33,30.15,15,2,15,0.00
2013-8-26,82,73,67,66,62,55,77,67,56,30.15,29.83,22,2,22,0.01
2013-8-27,80,74,70,69,66,63,86,75,62,29.86,29.80,14,3,14,0.01
2013-8-28,81,71,66,68,63,61,86,76,57,29.95,29.82,16,3,16,0.00
2013-8-29,67,66,63,62,60,56,86,81,76,30.04,29.92,17,4,17,0.00
2013-8-30,80,71,64,67,62,57,81,74,62,30.00,29.78,15,2,15,0.00
2013-8-31,81,75,70,73,69,65,87,82,74,29.80,29.75,19,2,19,0.02
2013-9-1,77,73,71,73,69,66,90,87,81,29.85,29.75,12,2,12,0.38
2013-9-2,81,75,72,74,70,68,90,86,74,29.84,29.68,20,3,20,0.03
2013-9-3,81,75,68,70,67,58,87,77,66,29.77,29.65,16,2,16,0.00
2013-9-4,78,70,62,60,57,55,80,64,47,29.88,29.77,17,3,17,0.00
2013-9-5,69,65,56,61,56,46,85,73,53,30.11,29.82,15,2,15,0.08
2013-9-6,66,58,49,46,43,40,75,58,39,30.21,30.06,10,2,12,0.00
2013-9-7,76,65,52,56,50,44,73,59,42,30.06,29.81,14,2,14,0.00
2013-9-8,75,66,56,61,51,40,80,61,38,30.06,29.70,26,5,26,0.01
2013-9-9,70,60,48,49,44,40,73,58,43,30.20,30.06,16,2,16,0.00
2013-9-10,73,67,58,68,60,49,88,79,69,30.12,29.99,18,2,18,0.07
2013-9-11,91,80,69,76,70,65,90,75,52,30.03,29.89,17,2,17,0.01
2013-9-12,87,79,68,74,69,64,86,73,59,29.93,29.63,24,4,24,1.17
2013-9-13,72,68,61,68,63,53,90,85,76,29.72,29.52,19,2,19,0.22
2013-9-14,67,54,57,56,33,-100,79,61,62,30.02,29.72,16,-47,16,0.00
2013-9-15,69,61,52,52,49,46,83,67,49,30.13,30.01,12,2,12,0.00
2013-9-16,67,60,51,55,49,38,77,69,55,30.22,29.98,22,4,22,0.01
2013-9-17,60,52,43,43,38,35,75,60,45,30.39,30.22,18,3,18,0.00
2013-9-18,69,58,45,48,44,39,83,63,41,30.29,30.10,11,1,11,0.00
2013-9-19,74,62,51,55,50,44,81,66,47,30.10,29.99,10,1,10,0.00
2013-9-20,75,65,53,58,54,47,85,69,53,30.05,29.96,12,2,12,0.00
2013-9-21,75,67,57,64,59,51,87,76,59,30.00,29.70,25,4,25,0.00
2013-9-22,71,65,54,65,57,45,88,76,57,29.79,29.57,21,5,21,0.54
2013-9-23,61,54,48,45,42,38,74,63,52,29.97,29.79,19,6,19,0.00
2013-9-24,64,54,45,46,42,38,78,64,45,29.96,29.78,20,4,20,0.00
2013-9-25,64,56,48,49,46,41,80,69,56,29.95,29.85,15,3,15,0.00
2013-9-26,64,58,54,50,48,45,75,68,57,30.09,29.94,13,3,13,0.00
2013-9-27,66,60,53,52,49,46,78,69,56,30.22,30.09,16,3,16,0.00
2013-9-28,70,60,51,59,53,46,90,79,62,30.29,30.22,16,3,16,0.00
2013-9-29,64,55,49,55,51,47,96,85,63,30.23,30.09,13,2,13,0.00
2013-9-30,65,56,50,56,51,48,95,85,66,30.09,29.93,14,2,14,0.00
2013-10-1,73,60,49,58,53,47,94,78,52,29.94,29.81,17,2,17,0.00
2013-10-2,77,66,54,65,59,51,93,79,64,29.91,29.78,21,2,21,0.00
2013-10-3,74,64,56,58,54,52,89,72,47,30.04,29.91,12,1,12,0.00
2013-10-4,64,60,54,60,55,50,90,84,77,30.05,29.99,9,1,9,0.04
2013-10-5,69,63,60,60,58,57,93,84,68,30.09,30.02,10,2,10,0.00
2013-10-6,62,58,55,58,56,54,97,94,83,30.20,30.08,15,4,15,0.42
2013-10-7,74,66,58,71,64,57,99,94,82,30.09,29.79,33,5,33,0.02
2013-10-8,64,58,52,58,48,42,85,69,49,30.34,29.86,20,4,20,0.00
2013-10-9,60,53,46,48,46,42,87,75,62,30.45,30.33,17,4,17,0.00
2013-10-10,62,53,45,55,49,43,93,86,75,30.33,30.15,12,2,12,0.00
2013-10-11,68,58,50,57,51,41,94,79,38,30.15,30.06,13,2,13,0.00
2013-10-12,61,56,50,57,52,47,96,88,83,30.36,30.11,23,4,23,0.00
2013-10-13,60,53,45,51,48,42,93,82,64,30.42,30.34,15,3,15,0.00
2013-10-14,62,50,40,52,45,37,95,83,52,30.38,30.22,11,1,11,0.00
2013-10-15,67,58,50,57,52,47,92,83,69,30.23,30.14,7,2,4,0.00
2013-10-16,62,56,50,57,53,48,95,88,82,30.14,29.87,8,1,11,0.00
2013-10-17,70,61,54,62,58,52,96,88,77,29.88,29.69,12,2,12,0.01
2013-10-18,66,61,51,61,54,44,96,79,57,29.87,29.58,22,4,22,0.03
2013-10-19,65,55,45,50,46,41,88,72,55,29.94,29.72,14,2,19,0.01
2013-10-20,60,54,44,52,44,38,91,70,46,29.99,29.66,26,3,26,0.02
2013-10-21,64,52,40,48,43,36,89,71,53,30.08,29.96,14,2,14,0.00
2013-10-22,66,55,44,55,48,41,94,77,62,29.96,29.67,18,2,18,0.00
2013-10-23,53,48,41,41,38,36,85,70,57,29.77,29.56,11,1,11,0.00
2013-10-24,52,46,40,38,34,30,79,63,46,29.85,29.60,21,3,21,0.00
2013-10-25,50,42,35,37,32,29,84,67,52,30.12,29.85,19,3,19,0.00
2013-10-26,55,44,33,40,33,28,87,67,44,30.12,29.84,22,2,22,0.00
2013-10-27,54,48,42,42,38,32,89,69,52,30.03,29.78,21,3,21,0.04
2013-10-28,58,46,36,41,34,28,84,66,49,30.32,30.03,22,3,22,0.00
2013-10-29,49,40,32,36,30,24,85,68,48,30.41,30.32,11,2,11,0.00
2013-10-30,48,41,36,44,37,32,94,87,84,30.34,30.16,8,0,8,0.05
2013-10-31,61,48,35,59,46,33,96,93,90,30.22,29.76,18,2,18,0.04
2013-11-1,70,63,57,65,59,54,97,87,74,29.76,29.42,35,6,35,0.06
2013-11-2,65,56,48,54,48,45,92,77,52,29.70,29.55,15,1,15,0.00
2013-11-3,52,42,33,49,34,20,91,73,50,30.39,29.68,17,1,17,0.04
2013-11-4,42,35,29,25,22,20,81,62,42,30.67,30.39,10,3,15,0.00
2013-11-5,50,39,29,37,30,23,81,71,55,30.69,30.48,13,2,13,0.00
2013-11-6,61,50,40,50,43,34,88,76,59,30.49,30.01,20,3,20,0.00
2013-11-7,66,54,41,59,51,35,95,89,75,30.01,29.63,21,4,21,0.26
2013-11-8,48,40,34,36,31,25,85,69,57,30.06,29.78,17,4,26,0.00
2013-11-9,46,41,32,32,28,24,75,60,47,30.17,30.01,22,4,22,0.00
2013-11-10,56,46,41,47,38,32,94,76,60,30.01,29.69,25,3,25,0.06
2013-11-11,52,45,38,36,32,29,72,62,46,30.07,29.81,24,4,24,0.00
2013-11-12,48,36,28,40,28,18,90,72,58,30.16,29.85,21,5,21,0.11
2013-11-13,37,30,24,21,18,16,74,62,47,30.25,30.13,18,5,19,0.00
2013-11-14,50,39,29,30,24,19,72,56,43,30.13,29.99,18,3,21,0.01
2013-11-15,62,46,31,35,28,21,70,51,29,30.16,30.06,13,2,16,0.00
2013-11-16,60,45,37,36,32,30,78,62,34,30.28,30.15,9,1,10,0.00
2013-11-17,56,46,35,53,42,30,96,86,77,30.29,29.81,10,2,11,0.06
2013-11-18,66,58,48,62,50,35,98,78,55,29.81,29.49,27,5,27,0.14
2013-11-19,48,40,31,35,26,19,66,57,47,30.25,29.61,28,8,28,0.00
2013-11-20,41,33,27,20,18,17,67,56,39,30.59,30.24,27,4,27,0.00
2013-11-21,48,36,24,31,23,16,73,61,42,30.61,30.34,12,2,12,0.00
2013-11-22,46,44,40,45,40,31,96,89,69,30.34,29.78,6,1,7,0.24
2013-11-23,46,40,30,45,30,20,96,68,44,29.87,29.74,23,7,26,0.00
2013-11-24,30,24,20,19,1,-8,69,37,21,30.16,29.75,38,12,38,0.00
2013-11-25,33,25,17,14,-1,-11,48,33,16,30.33,30.15,17,5,19,0.00
2013-11-26,43,37,31,37,20,13,80,51,39,30.30,30.00,15,3,16,0.13
2013-11-27,62,51,37,57,46,31,86,83,80,30.00,29.17,30,8,37,1.49
2013-11-28,37,31,25,31,15,4,80,51,31,30.40,29.41,26,7,28,0.00
2013-11-29,33,27,22,13,8,2,60,45,31,30.72,30.40,14,4,15,0.00
2013-11-30,33,26,17,21,12,4,61,55,47,30.76,30.40,10,3,12,0.00
2013-12-1,40,37,33,34,30,22,81,77,62,30.39,29.97,11,2,12,0.28
2013-12-2,39,38,36,34,33,32,82,82,81,29.98,29.89,8,2,9,0.02
2013-12-3,47,38,34,34,30,26,82,73,53,29.92,29.81,14,3,14,0.00
2013-12-4,43,35,30,26,25,23,78,66,47,30.17,29.91,17,2,17,0.00
2013-12-5,49,43,31,44,36,23,82,76,71,30.18,29.88,13,2,13,0.00
2013-12-6,54,48,34,50,41,28,86,76,56,30.11,29.82,16,4,19,0.30
2013-12-7,40,34,28,30,24,16,81,67,48,30.42,30.04,21,4,21,0.20
2013-12-8,31,28,24,17,14,12,66,53,45,30.57,30.42,9,2,9,0.00
2013-12-9,40,34,27,34,27,12,86,77,48,30.47,29.84,21,4,21,0.21
2013-12-10,33,31,25,28,25,13,82,78,58,29.96,29.74,21,3,24,0.03
2013-12-11,32,27,22,17,15,13,68,61,50,30.18,29.96,18,5,20,0.01
2013-12-12,25,22,17,14,4,-3,67,48,30,30.24,30.04,25,4,25,0.00
2013-12-13,30,22,15,14,8,-2,62,52,43,30.37,29.96,19,6,24,0.00
2013-12-14,30,17,11,24,3,-8,79,55,39,30.58,30.11,24,5,24,0.00
2013-12-15,35,28,22,30,22,16,86,77,67,30.11,29.37,27,7,30,0.00
2013-12-16,28,24,18,19,10,4,78,55,39,30.18,29.71,21,5,24,0.00
2013-12-17,21,15,7,14,5,-4,80,64,50,30.26,29.91,21,3,21,0.00
2013-12-18,33,25,17,18,15,9,75,67,52,30.04,29.83,19,5,19,0.00
2013-12-19,40,33,24,24,22,16,73,63,50,30.08,29.92,23,3,23,0.12
2013-12-20,49,38,30,35,29,22,78,69,56,30.09,29.86,13,2,14,0.74
2013-12-21,53,45,38,43,37,30,85,74,66,29.92,29.82,12,2,13,0.26
2013-12-22,48,40,35,43,35,30,82,81,78,30.01,29.76,19,3,19,0.00
2013-12-23,37,34,32,32,29,28,83,82,82,30.06,29.92,12,2,12,0.58
2013-12-24,36,32,27,32,20,11,83,62,44,30.17,30.01,19,5,20,0.01
2013-12-25,27,20,14,12,2,-3,57,46,38,30.52,30.16,22,5,22,0.00
2013-12-26,34,27,19,27,18,7,78,70,57,30.48,30.05,15,2,15,0.00
2013-12-27,33,27,22,19,17,15,84,66,52,30.24,30.16,16,3,19,0.02
2013-12-28,45,35,25,26,22,16,72,60,45,30.18,29.95,19,3,22,0.02
2013-12-29,41,35,29,35,28,21,82,74,62,30.00,29.36,21,2,21,1.14
2013-12-30,39,32,20,34,19,6,83,59,40,30.14,29.50,24,6,25,0.01
2013-12-31,25,20,14,13,2,-7,66,47,36,30.15,29.99,13,4,13,0.00
2014-1-1,28,22,17,9,5,3,59,47,37,30.35,30.15,16,3,17,0.00
2014-1-2,23,12,2,11,4,-6,80,70,50,30.33,29.82,23,7,24,0.00